createdAt,value
2023-02-25T00:01:34.764Z,7.82
2023-02-25T00:04:01.683Z,7.43
2023-02-25T00:06:28.576Z,8.38
2023-02-25T00:08:55.656Z,12.40
2023-02-25T00:11:25.709Z,12.00
2023-02-25T00:13:52.698Z,12.23
2023-02-25T00:16:21.470Z,6.93
2023-02-25T00:18:49.286Z,12.57
2023-02-25T00:21:16.854Z,10.65
2023-02-25T00:23:45.698Z,8.30
2023-02-25T00:26:15.482Z,11.30
2023-02-25T00:28:43.062Z,5.67
2023-02-25T00:31:12.220Z,13.82
2023-02-25T00:33:42.039Z,10.48
2023-02-25T00:36:12.096Z,10.57
2023-02-25T00:38:38.951Z,14.23
2023-02-25T00:41:13.479Z,12.07
2023-02-25T00:43:49.710Z,14.25
2023-02-25T00:46:16.518Z,9.15
2023-02-25T00:48:43.353Z,7.47
2023-02-25T00:51:13.464Z,11.35
2023-02-25T00:53:40.922Z,11.98
2023-02-25T00:56:09.504Z,15.38
2023-02-25T00:58:38.252Z,19.45
2023-02-25T01:01:15.053Z,13.65
2023-02-25T01:03:41.755Z,15.02
2023-02-25T01:06:09.535Z,7.53
2023-02-25T01:08:36.512Z,17.60
2023-02-25T01:11:21.466Z,10.63
2023-02-25T01:13:49.846Z,9.48
2023-02-25T01:16:19.868Z,18.30
2023-02-25T01:18:50.232Z,10.50
2023-02-25T01:21:18.926Z,9.18
2023-02-25T01:23:46.905Z,16.40
2023-02-25T01:26:14.380Z,12.18
2023-02-25T01:28:41.324Z,11.57
2023-02-25T01:31:17.056Z,15.18
2023-02-25T01:33:44.053Z,13.25
2023-02-25T01:36:10.747Z,15.85
2023-02-25T01:38:37.501Z,12.52
2023-02-25T01:41:04.468Z,12.18
2023-02-25T01:43:31.163Z,14.88
2023-02-25T01:45:57.913Z,10.82
2023-02-25T01:48:29.356Z,17.55
2023-02-25T01:50:59.505Z,11.50
2023-02-25T01:53:34.163Z,15.32
2023-02-25T01:56:01.727Z,13.98
2023-02-25T01:58:29.488Z,10.75
2023-02-25T02:00:56.504Z,13.75
2023-02-25T02:03:30.798Z,11.85
2023-02-25T02:06:13.616Z,13.85
2023-02-25T02:08:42.668Z,15.18
2023-02-25T02:11:09.473Z,9.30
2023-02-25T02:13:39.147Z,16.02
2023-02-25T02:16:24.711Z,16.60
2023-02-25T02:19:06.135Z,13.18
2023-02-25T02:21:56.152Z,12.75
2023-02-25T02:24:41.265Z,16.10
2023-02-25T02:27:14.518Z,10.10
2023-02-25T02:29:54.027Z,17.63
2023-02-25T02:32:41.007Z,14.40
2023-02-25T02:35:44.551Z,11.13
2023-02-25T02:38:22.005Z,14.15
2023-02-25T02:41:06.810Z,12.40
2023-02-25T02:43:45.321Z,13.20
2023-02-25T02:46:27.544Z,13.13
2023-02-25T02:49:09.480Z,13.52
2023-02-25T02:51:48.676Z,11.20
2023-02-25T02:54:18.133Z,16.50
2023-02-25T02:56:49.390Z,13.05
2023-02-25T02:59:27.570Z,8.98
2023-02-25T03:02:04.455Z,14.10
2023-02-25T03:04:35.504Z,9.23
2023-02-25T03:07:06.009Z,11.60
2023-02-25T03:09:38.287Z,11.25
2023-02-25T03:12:05.110Z,10.27
2023-02-25T03:14:31.880Z,12.30
2023-02-25T03:17:05.409Z,16.38
2023-02-25T03:19:42.477Z,15.25
2023-02-25T03:22:14.291Z,13.30
2023-02-25T03:24:49.225Z,15.80
2023-02-25T03:27:34.554Z,14.25
2023-02-25T03:30:12.825Z,17.33
2023-02-25T03:32:47.876Z,11.32
2023-02-25T03:35:17.964Z,13.90
2023-02-25T03:37:48.426Z,15.23
2023-02-25T03:40:18.364Z,19.55
2023-02-25T03:42:51.207Z,12.82
2023-02-25T03:45:18.420Z,13.30
2023-02-25T03:47:45.588Z,15.30
2023-02-25T03:50:14.601Z,16.55
2023-02-25T03:52:42.231Z,13.65
2023-02-25T03:55:10.432Z,14.02
2023-02-25T03:57:40.274Z,16.63
2023-02-25T04:00:28.403Z,15.73
2023-02-25T04:02:55.357Z,15.13
2023-02-25T04:05:23.812Z,14.10
2023-02-25T04:07:50.620Z,13.50
2023-02-25T04:10:17.630Z,15.00
2023-02-25T04:12:44.291Z,15.55
2023-02-25T04:15:11.330Z,13.68
2023-02-25T04:17:37.911Z,13.50
2023-02-25T04:20:05.658Z,17.73
2023-02-25T04:22:33.449Z,14.75
2023-02-25T04:25:00.339Z,13.95
2023-02-25T04:27:27.463Z,14.38
2023-02-25T04:29:54.195Z,13.15
2023-02-25T04:32:21.010Z,11.52
2023-02-25T04:34:47.773Z,18.88
2023-02-25T04:37:14.488Z,14.93
2023-02-25T04:39:41.659Z,14.90
2023-02-25T04:42:08.700Z,18.73
2023-02-25T04:44:35.333Z,17.35
2023-02-25T04:47:02.150Z,10.95
2023-02-25T04:49:28.809Z,13.50
2023-02-25T04:51:55.483Z,13.77
2023-02-25T04:54:22.568Z,13.27
2023-02-25T04:56:49.369Z,17.08
2023-02-25T04:59:17.513Z,15.85
2023-02-25T05:01:44.281Z,17.90
2023-02-25T05:04:11.516Z,13.88
2023-02-25T05:06:39.329Z,18.80
2023-02-25T05:09:06.071Z,18.05
2023-02-25T05:11:33.018Z,14.60
2023-02-25T05:13:59.707Z,12.63
2023-02-25T05:16:27.770Z,12.65
2023-02-25T05:18:55.051Z,14.90
2023-02-25T05:21:24.468Z,16.33
2023-02-25T05:23:53.417Z,14.48
2023-02-25T05:26:22.447Z,13.40
2023-02-25T05:28:51.433Z,18.38
2023-02-25T05:31:18.584Z,13.20
2023-02-25T05:33:45.562Z,20.88
2023-02-25T05:36:14.617Z,14.80
2023-02-25T05:38:41.534Z,16.23
2023-02-25T05:41:09.284Z,13.50
2023-02-25T05:43:37.069Z,13.50
2023-02-25T05:46:05.093Z,12.43
2023-02-25T05:48:32.832Z,14.30
2023-02-25T05:51:05.193Z,8.57
2023-02-25T05:53:32.508Z,13.07
2023-02-25T05:55:59.974Z,15.10
2023-02-25T05:58:26.777Z,12.77
2023-02-25T06:00:54.083Z,15.48
2023-02-25T06:03:21.113Z,12.77
2023-02-25T06:05:48.145Z,11.88
2023-02-25T06:08:14.916Z,13.43
2023-02-25T06:10:41.543Z,14.38
2023-02-25T06:13:09.840Z,12.65
2023-02-25T06:15:41.772Z,10.32
2023-02-25T06:18:09.662Z,11.15
2023-02-25T06:20:36.480Z,16.45
2023-02-25T06:23:03.948Z,13.45
2023-02-25T06:25:30.698Z,10.70
2023-02-25T06:27:58.512Z,11.57
2023-02-25T06:30:25.296Z,13.70
2023-02-25T06:32:52.178Z,16.98
2023-02-25T06:35:23.766Z,14.68
2023-02-25T06:37:58.232Z,15.05
2023-02-25T06:40:25.920Z,15.73
2023-02-25T06:42:52.740Z,14.80
2023-02-25T06:45:19.374Z,13.88
2023-02-25T06:47:46.045Z,12.63
2023-02-25T06:50:12.690Z,10.05
2023-02-25T06:52:40.511Z,15.23
2023-02-25T06:55:07.760Z,18.60
2023-02-25T06:57:36.065Z,19.17
2023-02-25T07:00:05.567Z,15.48
2023-02-25T07:02:34.335Z,15.63
2023-02-25T07:05:03.120Z,13.90
2023-02-25T07:07:29.700Z,13.65
2023-02-25T07:09:56.271Z,15.20
2023-02-25T07:12:23.081Z,11.90
2023-02-25T07:14:50.199Z,22.48
2023-02-25T07:17:16.793Z,14.77
2023-02-25T07:19:43.459Z,14.25
2023-02-25T07:22:15.889Z,14.10
2023-02-25T07:25:43.298Z,18.50
2023-02-25T07:28:09.980Z,16.65
2023-02-25T07:30:55.363Z,16.17
2023-02-25T07:33:22.079Z,12.93
2023-02-25T07:35:48.745Z,16.55
2023-02-25T07:38:15.504Z,17.67
2023-02-25T07:40:42.205Z,18.42
2023-02-25T07:43:08.889Z,13.77
2023-02-25T07:45:35.662Z,19.25
2023-02-25T07:48:02.510Z,22.85
2023-02-25T07:50:29.446Z,16.02
2023-02-25T07:52:57.659Z,16.30
2023-02-25T07:55:27.171Z,15.82
2023-02-25T07:57:53.872Z,13.15
2023-02-25T08:00:20.769Z,17.73
2023-02-25T08:02:47.522Z,20.50
2023-02-25T08:05:14.308Z,14.23
2023-02-25T08:07:41.466Z,19.77
2023-02-25T08:10:08.713Z,14.55
2023-02-25T08:12:35.480Z,16.13
2023-02-25T08:15:02.358Z,17.08
2023-02-25T08:17:32.820Z,15.63
2023-02-25T08:19:59.744Z,10.52
2023-02-25T08:22:26.389Z,19.33
2023-02-25T08:24:53.360Z,16.35
2023-02-25T08:27:20.235Z,14.50
2023-02-25T08:29:46.859Z,20.27
2023-02-25T08:32:13.715Z,18.15
2023-02-25T08:34:40.502Z,19.95
2023-02-25T08:37:11.142Z,14.13
2023-02-25T08:42:05.534Z,16.20
2023-02-25T08:44:32.255Z,19.20
2023-02-25T08:46:59.069Z,14.80
2023-02-25T08:49:25.811Z,15.25
2023-02-25T08:51:52.663Z,16.75
2023-02-25T08:54:19.341Z,18.38
2023-02-25T08:56:46.005Z,14.68
2023-02-25T08:59:15.827Z,19.02
2023-02-25T09:01:45.725Z,18.07
2023-02-25T09:04:18.076Z,15.30
2023-02-25T09:06:47.586Z,16.85
2023-02-25T09:09:18.357Z,18.70
2023-02-25T09:14:12.265Z,18.15
2023-02-25T09:16:39.071Z,16.73
2023-02-25T09:19:05.785Z,16.17
2023-02-25T09:21:32.628Z,18.20
2023-02-25T09:23:59.917Z,12.25
2023-02-25T09:26:26.668Z,17.67
2023-02-25T09:28:53.397Z,14.23
2023-02-25T09:31:20.208Z,12.90
2023-02-25T09:33:47.113Z,15.70
2023-02-25T09:36:19.246Z,13.50
2023-02-25T09:38:47.688Z,16.08
2023-02-25T09:41:35.480Z,13.13
2023-02-25T09:44:34.137Z,16.70
2023-02-25T09:47:06.394Z,23.25
2023-02-25T09:50:00.466Z,12.05
2023-02-25T09:52:52.856Z,12.82
2023-02-25T09:55:38.050Z,13.73
2023-02-25T09:58:17.437Z,12.93
2023-02-25T10:01:16.754Z,12.77
2023-02-25T10:04:08.514Z,10.05
2023-02-25T10:06:44.404Z,14.00
2023-02-25T10:09:39.198Z,11.68
2023-02-25T10:12:29.570Z,15.55
2023-02-25T10:15:20.679Z,12.68
2023-02-25T10:18:09.085Z,14.75
2023-02-25T10:21:13.758Z,14.77
2023-02-25T10:24:17.871Z,12.73
2023-02-25T10:26:49.593Z,14.23
2023-02-25T10:29:31.927Z,11.57
2023-02-25T10:32:00.884Z,12.35
2023-02-25T10:34:29.620Z,12.68
2023-02-25T10:36:59.342Z,16.67
2023-02-25T10:39:27.668Z,12.35
2023-02-25T10:41:54.612Z,16.65
2023-02-25T10:44:21.554Z,11.27
2023-02-25T10:47:07.233Z,16.42
2023-02-25T10:49:38.705Z,11.73
2023-02-25T10:52:17.806Z,12.13
2023-02-25T10:54:53.079Z,10.43
2023-02-25T10:57:27.264Z,10.98
2023-02-25T11:00:08.472Z,15.23
2023-02-25T11:02:41.629Z,11.70
2023-02-25T11:05:33.337Z,14.77
2023-02-25T11:08:00.161Z,10.77
2023-02-25T11:10:27.209Z,12.20
2023-02-25T11:12:57.203Z,13.80
2023-02-25T11:15:31.661Z,12.32
2023-02-25T11:18:23.074Z,9.45
2023-02-25T11:21:02.489Z,12.27
2023-02-25T11:23:34.775Z,11.18
2023-02-25T11:26:01.995Z,9.85
2023-02-25T11:28:32.412Z,12.18
2023-02-25T11:31:29.607Z,18.30
2023-02-25T11:33:59.748Z,13.82
2023-02-25T11:36:31.389Z,9.88
2023-02-25T11:39:18.988Z,7.50
2023-02-25T11:41:54.091Z,10.57
2023-02-25T11:44:26.997Z,9.23
2023-02-25T11:47:04.742Z,4.22
2023-02-25T11:49:56.013Z,4.07
2023-02-25T11:52:40.681Z,2.67
2023-02-25T11:55:12.745Z,3.55
2023-02-25T11:58:05.249Z,5.30
2023-02-25T12:00:55.791Z,4.50
2023-02-25T12:04:06.488Z,6.10
2023-02-25T12:06:35.682Z,5.05
2023-02-25T12:09:11.406Z,3.78
2023-02-25T12:12:19.083Z,4.72
2023-02-25T12:15:24.311Z,4.22
2023-02-25T12:17:53.937Z,5.50
2023-02-25T12:20:48.246Z,4.30
2023-02-25T12:26:44.217Z,4.00
2023-02-25T12:29:39.015Z,3.28
2023-02-25T12:32:55.776Z,3.58
2023-02-25T12:35:23.078Z,5.15
2023-02-25T12:38:23.497Z,3.63
2023-02-25T12:41:04.075Z,2.15
2023-02-25T12:43:42.873Z,4.75
2023-02-25T12:46:27.312Z,3.92
2023-02-25T12:49:00.128Z,3.35
2023-02-25T12:52:00.033Z,3.72
2023-02-25T12:54:51.650Z,3.17
2023-02-25T12:57:48.998Z,5.22
2023-02-25T13:00:42.944Z,2.45
2023-02-25T13:03:21.334Z,5.97
2023-02-25T13:06:20.724Z,3.65
2023-02-25T13:09:17.828Z,1.88
2023-02-25T13:12:13.637Z,0.70
2023-02-25T13:15:05.311Z,2.20
2023-02-25T13:18:07.228Z,1.75
2023-02-25T13:20:33.708Z,2.33
2023-02-25T13:23:35.907Z,2.85
2023-02-25T13:26:28.697Z,0.98
2023-02-25T13:29:24.795Z,2.03
2023-02-25T13:32:24.792Z,2.88
2023-02-25T13:35:25.094Z,3.00
2023-02-25T13:38:11.369Z,2.35
2023-02-25T13:41:05.896Z,3.97
2023-02-25T13:43:46.525Z,2.55
2023-02-25T13:46:29.993Z,3.63
2023-02-25T13:49:27.852Z,5.03
2023-02-25T13:52:21.299Z,2.90
2023-02-25T13:55:07.521Z,2.15
2023-02-25T13:57:55.023Z,3.65
2023-02-25T14:00:59.177Z,2.45
2023-02-25T14:03:50.492Z,4.00
2023-02-25T14:06:23.037Z,4.38
2023-02-25T14:09:18.334Z,3.85
2023-02-25T14:12:22.703Z,2.28
2023-02-25T14:15:15.724Z,5.40
2023-02-25T14:17:57.473Z,3.10
2023-02-25T14:20:31.615Z,1.73
2023-02-25T14:23:11.980Z,5.20
2023-02-25T14:25:50.864Z,4.82
2023-02-25T14:28:32.830Z,6.32
2023-02-25T14:31:14.437Z,6.30
2023-02-25T14:34:06.050Z,6.43
2023-02-25T14:36:57.545Z,6.18
2023-02-25T14:40:02.095Z,2.78
2023-02-25T14:42:46.904Z,2.90
2023-02-25T14:45:18.768Z,6.18
2023-02-25T14:48:01.743Z,20.42
2023-02-25T14:50:44.253Z,6.38
2023-02-25T14:53:53.503Z,4.40
2023-02-25T14:56:49.293Z,4.50
2023-02-25T15:00:00.851Z,4.47
2023-02-25T15:02:50.775Z,3.15
2023-02-25T15:05:36.312Z,3.97
2023-02-25T15:08:21.811Z,5.07
2023-02-25T15:11:31.192Z,2.40
2023-02-25T15:14:24.960Z,4.97
2023-02-25T15:17:22.485Z,5.35
2023-02-25T15:19:58.849Z,3.72
2023-02-25T15:22:33.240Z,3.15
2023-02-25T15:25:21.748Z,4.50
2023-02-25T15:27:50.425Z,4.72
2023-02-25T15:30:22.789Z,4.07
2023-02-25T15:33:16.214Z,5.03
2023-02-25T15:35:43.499Z,5.20
2023-02-25T15:38:21.636Z,3.90
2023-02-25T15:40:52.711Z,7.50
2023-02-25T15:43:19.302Z,4.78
2023-02-25T15:45:49.015Z,5.90
2023-02-25T15:48:21.576Z,6.17
2023-02-25T15:50:48.173Z,7.88
2023-02-25T15:53:21.317Z,5.88
2023-02-25T15:55:51.838Z,5.43
2023-02-25T15:58:24.219Z,7.32
2023-02-25T16:00:57.160Z,5.18
2023-02-25T16:03:34.864Z,3.80
2023-02-25T16:06:24.712Z,5.45
2023-02-25T16:08:53.782Z,2.37
2023-02-25T16:11:34.752Z,7.50
2023-02-25T16:14:07.261Z,4.75
2023-02-25T16:16:35.887Z,7.82
2023-02-25T16:19:07.013Z,7.88
2023-02-25T16:21:46.427Z,5.20
2023-02-25T16:24:13.901Z,6.43
2023-02-25T16:26:56.033Z,3.97
2023-02-25T16:29:44.188Z,4.00
2023-02-25T16:32:38.980Z,2.30
2023-02-25T16:35:24.289Z,3.45
2023-02-25T16:37:58.045Z,3.42
2023-02-25T16:40:36.491Z,4.30
2023-02-25T16:43:03.357Z,4.28
2023-02-25T16:45:34.076Z,5.18
2023-02-25T16:50:33.966Z,4.50
2023-02-25T16:53:02.428Z,5.15
2023-02-25T16:55:38.924Z,3.55
2023-02-25T16:58:14.720Z,5.72
2023-02-25T17:00:55.884Z,4.45
2023-02-25T17:03:25.179Z,3.00
2023-02-25T17:06:02.986Z,5.90
2023-02-25T17:08:29.704Z,4.00
2023-02-25T17:11:00.024Z,2.90
2023-02-25T17:13:29.266Z,6.00
2023-02-25T17:15:56.477Z,2.90
2023-02-25T17:18:31.426Z,4.15
2023-02-25T17:21:16.923Z,2.53
2023-02-25T17:23:44.905Z,3.90
2023-02-25T17:26:16.370Z,2.47
2023-02-25T17:28:46.194Z,7.82
2023-02-25T17:31:19.157Z,4.65
2023-02-25T17:33:49.334Z,7.07
2023-02-25T17:36:19.792Z,1.42
2023-02-25T17:38:47.614Z,2.00
2023-02-25T17:41:19.265Z,3.05
2023-02-25T17:43:46.203Z,2.45
2023-02-25T17:46:38.014Z,3.08
2023-02-25T17:49:22.494Z,2.53
2023-02-25T17:51:57.459Z,2.90
2023-02-25T17:54:26.253Z,3.13
2023-02-25T17:56:58.904Z,3.33
2023-02-25T17:59:28.285Z,3.47
2023-02-25T18:01:59.728Z,5.45
2023-02-25T18:04:34.664Z,3.22
2023-02-25T18:07:32.724Z,3.40
2023-02-25T18:10:02.546Z,2.85
2023-02-25T18:12:33.307Z,2.87
2023-02-25T18:17:39.658Z,5.03
2023-02-25T18:20:28.931Z,2.78
2023-02-25T18:22:56.745Z,4.22
2023-02-25T18:25:29.414Z,2.33
2023-02-25T18:27:56.233Z,3.60
2023-02-25T18:30:26.269Z,4.30
2023-02-25T18:32:57.514Z,2.45
2023-02-25T18:35:25.702Z,5.05
2023-02-25T18:37:54.552Z,2.42
2023-02-25T18:40:32.566Z,4.63
2023-02-25T18:43:00.454Z,3.97
2023-02-25T18:45:29.412Z,4.10
2023-02-25T18:47:57.037Z,5.15
2023-02-25T18:50:25.689Z,2.35
2023-02-25T18:52:52.445Z,4.88
2023-02-25T18:55:25.938Z,3.38
2023-02-25T18:57:53.181Z,3.95
2023-02-25T19:00:23.222Z,3.45
2023-02-25T19:03:10.019Z,2.83
2023-02-25T19:05:37.941Z,3.38
2023-02-25T19:08:14.921Z,3.53
2023-02-25T19:10:43.820Z,4.25
2023-02-25T19:13:20.436Z,3.97
2023-02-25T19:15:47.427Z,3.08
2023-02-25T19:18:15.838Z,4.25
2023-02-25T19:20:44.130Z,4.95
2023-02-25T19:23:17.200Z,3.10
2023-02-25T19:25:46.455Z,3.38
2023-02-25T19:28:24.841Z,2.95
2023-02-25T19:30:51.517Z,2.75
2023-02-25T19:33:18.201Z,6.38
2023-02-25T19:35:45.051Z,2.83
2023-02-25T19:38:17.785Z,4.60
2023-02-25T19:40:48.319Z,3.28
2023-02-25T19:43:16.478Z,5.30
2023-02-25T19:46:01.808Z,4.10
2023-02-25T19:48:55.735Z,3.33
2023-02-25T19:51:25.468Z,3.65
2023-02-25T19:54:07.181Z,5.03
2023-02-25T19:56:46.868Z,2.50
2023-02-25T19:59:16.843Z,4.95
2023-02-25T20:01:43.859Z,6.80
2023-02-25T20:04:12.481Z,3.78
2023-02-25T20:06:41.874Z,2.13
2023-02-25T20:09:09.885Z,3.90
2023-02-25T20:11:36.830Z,4.45
2023-02-25T20:14:04.236Z,2.40
2023-02-25T20:16:31.965Z,3.83
2023-02-25T20:18:58.716Z,2.88
2023-02-25T20:21:27.091Z,4.38
2023-02-25T20:23:53.722Z,3.65
2023-02-25T20:26:23.062Z,6.20
2023-02-25T20:28:52.568Z,2.28
2023-02-25T20:31:20.136Z,3.88
2023-02-25T20:33:49.895Z,5.00
2023-02-25T20:36:23.707Z,2.37
2023-02-25T20:39:28.130Z,2.45
2023-02-25T20:41:54.793Z,2.20
2023-02-25T20:44:21.513Z,4.95
2023-02-25T20:46:48.317Z,3.65
2023-02-25T20:49:18.532Z,4.38
2023-02-25T20:51:47.381Z,4.45
2023-02-25T20:54:16.414Z,5.90
2023-02-25T20:56:43.471Z,3.13
2023-02-25T20:59:11.971Z,4.82
2023-02-25T21:01:39.194Z,3.33
2023-02-25T21:04:06.483Z,6.38
2023-02-25T21:06:34.161Z,6.90
2023-02-25T21:09:01.115Z,3.10
2023-02-25T21:11:28.099Z,4.38
2023-02-25T21:13:55.063Z,4.20
2023-02-25T21:16:23.661Z,4.15
2023-02-25T21:18:51.764Z,3.00
2023-02-25T21:21:21.500Z,3.17
2023-02-25T21:23:49.547Z,3.37
2023-02-25T21:26:16.396Z,2.85
2023-02-25T21:28:43.107Z,3.55
2023-02-25T21:31:12.472Z,3.15
2023-02-25T21:33:40.627Z,4.00
2023-02-25T21:36:09.179Z,2.85
2023-02-25T21:38:36.851Z,3.35
2023-02-25T21:41:09.877Z,6.32
2023-02-25T21:43:37.950Z,3.33
2023-02-25T21:46:07.929Z,3.92
2023-02-25T21:48:34.665Z,5.40
2023-02-25T21:51:01.353Z,4.20
2023-02-25T21:53:28.829Z,4.47
2023-02-25T21:55:57.163Z,4.18
2023-02-25T21:58:24.030Z,4.63
2023-02-25T22:00:50.859Z,4.68
2023-02-25T22:03:17.883Z,4.03
2023-02-25T22:05:49.775Z,3.50
2023-02-25T22:08:16.356Z,5.05
2023-02-25T22:10:42.932Z,5.32
2023-02-25T22:13:09.407Z,4.78
2023-02-25T22:15:36.436Z,4.82
2023-02-25T22:18:03.156Z,3.20
2023-02-25T22:20:29.745Z,4.38
2023-02-25T22:22:58.080Z,5.10
2023-02-25T22:25:24.854Z,5.03
2023-02-25T22:27:52.201Z,5.15
2023-02-25T22:30:19.118Z,5.93
2023-02-25T22:32:45.843Z,4.13
2023-02-25T22:35:12.493Z,4.00
2023-02-25T22:37:39.245Z,4.35
2023-02-25T22:40:06.481Z,6.30
2023-02-25T22:42:35.112Z,5.53
2023-02-25T22:45:01.892Z,5.18
2023-02-25T22:47:28.606Z,4.50
2023-02-25T22:49:55.173Z,5.82
2023-02-25T22:52:21.800Z,9.32
2023-02-25T22:54:48.512Z,6.65
2023-02-25T22:57:15.233Z,6.90
2023-02-25T22:59:41.891Z,7.35
2023-02-25T23:02:08.581Z,6.70
2023-02-25T23:04:35.434Z,5.13
2023-02-25T23:07:02.177Z,6.18
2023-02-25T23:09:28.887Z,3.67
2023-02-25T23:11:55.656Z,4.95
2023-02-25T23:14:22.497Z,5.78
2023-02-25T23:16:49.038Z,5.20
2023-02-25T23:19:17.595Z,5.70
2023-02-25T23:21:44.869Z,6.47
2023-02-25T23:24:18.550Z,5.40
2023-02-25T23:26:47.729Z,5.05
2023-02-25T23:29:15.048Z,4.57
2023-02-25T23:31:44.301Z,3.70
2023-02-25T23:34:14.282Z,3.88
2023-02-25T23:36:43.031Z,5.72
2023-02-25T23:39:12.259Z,4.25
2023-02-25T23:41:39.620Z,6.53
2023-02-25T23:44:08.703Z,7.28
2023-02-25T23:46:36.179Z,5.35
2023-02-25T23:49:06.097Z,8.68
2023-02-25T23:51:33.967Z,3.05
2023-02-25T23:54:03.609Z,4.85
2023-02-25T23:56:31.490Z,5.85
2023-02-25T23:58:58.251Z,6.28
